createdAt,value
2022-08-17T00:00:43.005Z,18.20
2022-08-17T00:03:10.026Z,18.10
2022-08-17T00:05:41.970Z,18.10
2022-08-17T00:08:10.349Z,18.00
2022-08-17T00:10:39.465Z,17.90
2022-08-17T00:13:09.302Z,17.90
2022-08-17T00:15:37.852Z,17.90
2022-08-17T00:19:06.395Z,17.80
2022-08-17T00:20:56.806Z,17.80
2022-08-17T00:23:25.353Z,17.80
2022-08-17T00:25:54.207Z,17.80
2022-08-17T00:28:22.454Z,17.80
2022-08-17T00:30:53.470Z,17.80
2022-08-17T00:33:25.945Z,17.80
2022-08-17T00:35:54.901Z,17.80
2022-08-17T00:38:23.578Z,17.80
2022-08-17T00:40:55.879Z,17.70
2022-08-17T00:43:32.648Z,17.60
2022-08-17T00:46:02.982Z,17.60
2022-08-17T00:48:33.286Z,17.50
2022-08-17T00:51:07.947Z,17.40
2022-08-17T00:53:39.796Z,17.40
2022-08-17T00:56:11.689Z,17.30
2022-08-17T00:58:40.279Z,17.30
2022-08-17T01:01:11.140Z,17.30
2022-08-17T01:03:41.890Z,17.40
2022-08-17T01:06:10.270Z,17.40
2022-08-17T01:08:40.501Z,17.40
2022-08-17T01:11:09.373Z,17.40
2022-08-17T01:13:41.396Z,17.40
2022-08-17T01:16:17.070Z,17.40
2022-08-17T01:18:50.261Z,17.40
2022-08-17T01:21:25.588Z,17.40
2022-08-17T01:23:54.938Z,17.30
2022-08-17T01:26:23.861Z,17.30
2022-08-17T01:28:55.332Z,17.20
2022-08-17T01:31:28.638Z,17.20
2022-08-17T01:33:57.857Z,17.20
2022-08-17T01:36:25.916Z,17.20
2022-08-17T01:38:55.325Z,17.20
2022-08-17T01:41:23.905Z,17.10
2022-08-17T01:43:55.670Z,17.10
2022-08-17T01:46:27.890Z,17.00
2022-08-17T01:48:57.558Z,17.00
2022-08-17T01:51:26.922Z,17.00
2022-08-17T01:53:59.235Z,17.00
2022-08-17T01:56:29.615Z,16.90
2022-08-17T01:58:58.284Z,17.00
2022-08-17T02:01:29.779Z,17.00
2022-08-17T02:04:00.431Z,17.00
2022-08-17T02:06:31.467Z,17.00
2022-08-17T02:09:16.711Z,17.00
2022-08-17T02:11:46.253Z,17.00
2022-08-17T02:14:14.858Z,17.00
2022-08-17T02:16:43.160Z,16.90
2022-08-17T02:19:15.056Z,16.80
2022-08-17T02:21:45.027Z,16.80
2022-08-17T02:24:58.339Z,16.90
2022-08-17T02:27:09.343Z,16.80
2022-08-17T02:29:37.626Z,16.90
2022-08-17T02:32:06.309Z,17.00
2022-08-17T02:34:35.228Z,17.00
2022-08-17T02:37:03.128Z,17.10
2022-08-17T02:39:32.494Z,17.10
2022-08-17T02:42:04.267Z,17.10
2022-08-17T02:44:39.390Z,17.10
2022-08-17T02:47:09.705Z,17.10
2022-08-17T02:49:38.100Z,17.10
2022-08-17T02:52:07.940Z,17.10
2022-08-17T02:54:41.251Z,17.00
2022-08-17T02:57:10.868Z,17.00
2022-08-17T02:59:39.272Z,17.00
2022-08-17T03:02:08.504Z,17.00
2022-08-17T03:04:36.808Z,17.00
2022-08-17T03:07:05.833Z,17.00
2022-08-17T03:09:33.956Z,17.00
2022-08-17T03:12:07.588Z,17.00
2022-08-17T03:14:41.513Z,17.00
2022-08-17T03:17:11.132Z,17.00
2022-08-17T03:19:44.268Z,17.00
2022-08-17T03:22:35.583Z,17.00
2022-08-17T03:25:00.271Z,17.00
2022-08-17T03:27:30.180Z,17.00
2022-08-17T03:29:58.148Z,17.00
2022-08-17T03:32:26.120Z,17.00
2022-08-17T03:34:59.389Z,17.00
2022-08-17T03:37:27.607Z,17.00
2022-08-17T03:39:55.691Z,17.00
2022-08-17T03:42:31.870Z,16.90
2022-08-17T03:45:03.769Z,16.90
2022-08-17T03:47:49.099Z,16.90
2022-08-17T03:50:35.457Z,16.90
2022-08-17T03:53:24.553Z,16.90
2022-08-17T03:56:11.333Z,16.90
2022-08-17T03:58:39.318Z,17.00
2022-08-17T04:01:08.978Z,17.00
2022-08-17T04:03:37.129Z,17.00
2022-08-17T04:06:05.565Z,17.00
2022-08-17T04:08:33.581Z,17.00
2022-08-17T04:11:02.210Z,17.00
2022-08-17T04:13:30.261Z,17.00
2022-08-17T04:15:59.188Z,17.00
2022-08-17T04:18:28.560Z,17.00
2022-08-17T04:20:56.724Z,17.00
2022-08-17T04:23:32.632Z,17.10
2022-08-17T04:26:00.609Z,17.10
2022-08-17T04:28:32.155Z,17.10
2022-08-17T04:31:00.540Z,17.10
2022-08-17T04:33:30.964Z,17.10
2022-08-17T04:36:00.872Z,17.20
2022-08-17T04:38:30.746Z,17.20
2022-08-17T04:41:17.233Z,17.20
2022-08-17T04:43:47.220Z,17.30
2022-08-17T04:46:17.376Z,17.40
2022-08-17T04:48:48.571Z,17.40
2022-08-17T04:51:20.553Z,17.40
2022-08-17T04:53:54.424Z,17.50
2022-08-17T04:56:25.056Z,17.50
2022-08-17T04:58:55.586Z,17.70
2022-08-17T05:01:25.847Z,17.80
2022-08-17T05:03:58.926Z,18.20
2022-08-17T05:06:28.022Z,18.70
2022-08-17T05:08:56.667Z,19.50
2022-08-17T05:11:26.502Z,20.30
2022-08-17T05:13:55.308Z,20.90
2022-08-17T05:16:24.384Z,21.40
2022-08-17T05:18:52.438Z,21.70
2022-08-17T05:21:22.899Z,22.00
2022-08-17T05:23:54.799Z,22.10
2022-08-17T05:26:26.310Z,22.20
2022-08-17T05:28:59.672Z,22.30
2022-08-17T05:31:29.683Z,22.40
2022-08-17T05:33:57.909Z,22.50
2022-08-17T05:36:42.823Z,22.40
2022-08-17T05:39:16.292Z,22.40
2022-08-17T05:41:46.557Z,22.20
2022-08-17T05:44:14.588Z,22.30
2022-08-17T05:46:46.611Z,22.40
2022-08-17T05:49:18.173Z,22.60
2022-08-17T05:52:04.334Z,22.70
2022-08-17T05:54:44.609Z,22.80
2022-08-17T05:57:33.808Z,22.90
2022-08-17T06:00:12.704Z,22.80
2022-08-17T06:02:51.745Z,22.80
2022-08-17T06:05:47.669Z,22.90
2022-08-17T06:08:24.257Z,22.90
2022-08-17T06:10:58.379Z,23.00
2022-08-17T06:13:43.128Z,23.20
2022-08-17T06:16:32.994Z,23.30
2022-08-17T06:19:07.552Z,23.60
2022-08-17T06:21:38.905Z,23.70
2022-08-17T06:24:28.897Z,23.70
2022-08-17T06:27:02.386Z,23.60
2022-08-17T06:29:38.880Z,23.60
2022-08-17T06:32:10.155Z,23.80
2022-08-17T06:34:42.318Z,24.30
2022-08-17T06:37:49.698Z,24.80
2022-08-17T06:41:03.211Z,25.20
2022-08-17T06:43:51.584Z,25.20
2022-08-17T06:46:25.330Z,25.00
2022-08-17T06:49:07.379Z,25.00
2022-08-17T06:51:40.410Z,25.00
2022-08-17T06:54:14.173Z,25.10
2022-08-17T06:56:53.169Z,25.20
2022-08-17T06:59:26.753Z,25.10
2022-08-17T07:02:28.978Z,25.00
2022-08-17T07:05:10.108Z,25.00
2022-08-17T07:07:57.669Z,25.10
2022-08-17T07:10:28.433Z,25.20
2022-08-17T07:13:04.073Z,25.30
2022-08-17T07:15:42.337Z,25.50
2022-08-17T07:18:12.006Z,25.70
2022-08-17T07:20:45.656Z,25.90
2022-08-17T07:23:26.649Z,26.20
2022-08-17T07:25:55.672Z,26.50
2022-08-17T07:28:25.048Z,26.80
2022-08-17T07:30:55.344Z,27.30
2022-08-17T07:33:26.288Z,27.60
2022-08-17T07:35:54.462Z,27.70
2022-08-17T07:38:27.634Z,27.80
2022-08-17T07:41:05.217Z,27.90
2022-08-17T07:43:37.740Z,28.10
2022-08-17T07:46:32.745Z,28.30
2022-08-17T07:49:24.071Z,28.20
2022-08-17T07:52:47.318Z,27.90
2022-08-17T07:54:49.428Z,27.60
2022-08-17T07:57:36.400Z,27.40
2022-08-17T08:00:31.392Z,27.10
2022-08-17T08:03:16.575Z,26.90
2022-08-17T08:05:54.254Z,26.80
2022-08-17T08:08:39.162Z,26.70
2022-08-17T08:11:10.929Z,26.50
2022-08-17T08:13:43.667Z,26.40
2022-08-17T08:16:31.146Z,26.30
2022-08-17T08:19:01.935Z,26.20
2022-08-17T08:21:37.223Z,26.20
2022-08-17T08:24:32.814Z,26.20
2022-08-17T08:27:09.756Z,26.20
2022-08-17T08:29:49.514Z,26.00
2022-08-17T08:32:25.454Z,26.00
2022-08-17T08:35:03.869Z,25.80
2022-08-17T08:37:43.537Z,25.70
2022-08-17T08:40:24.777Z,25.50
2022-08-17T08:43:03.437Z,25.40
2022-08-17T08:45:41.853Z,25.30
2022-08-17T08:48:53.855Z,25.20
2022-08-17T08:51:21.928Z,25.10
2022-08-17T08:53:59.666Z,25.10
2022-08-17T08:56:37.121Z,24.90
2022-08-17T08:59:17.054Z,24.90
2022-08-17T09:01:56.629Z,24.80
2022-08-17T09:05:12.493Z,24.60
2022-08-17T09:07:41.769Z,24.50
2022-08-17T09:10:17.818Z,24.30
2022-08-17T09:12:54.227Z,24.20
2022-08-17T09:15:27.477Z,24.20
2022-08-17T09:18:59.232Z,24.20
2022-08-17T09:20:56.338Z,24.20
2022-08-17T09:23:32.445Z,24.20
2022-08-17T09:26:05.178Z,24.20
2022-08-17T09:28:37.108Z,24.10
2022-08-17T09:31:10.367Z,24.00
2022-08-17T09:33:45.177Z,23.90
2022-08-17T09:36:24.150Z,23.80
2022-08-17T09:39:00.884Z,23.70
2022-08-17T09:41:39.047Z,23.60
2022-08-17T09:44:25.505Z,23.50
2022-08-17T09:46:56.893Z,23.50
2022-08-17T09:49:31.410Z,23.50
2022-08-17T09:52:06.633Z,23.50
2022-08-17T09:54:39.898Z,23.40
2022-08-17T09:57:31.849Z,23.40
2022-08-17T10:00:23.741Z,23.40
2022-08-17T10:03:25.639Z,23.30
2022-08-17T10:06:00.625Z,23.20
2022-08-17T10:08:39.369Z,23.10
2022-08-17T10:11:19.126Z,23.00
2022-08-17T10:13:56.285Z,22.90
2022-08-17T10:16:55.843Z,22.90
2022-08-17T10:19:31.221Z,22.80
2022-08-17T10:22:34.470Z,22.80
2022-08-17T10:25:30.214Z,22.70
2022-08-17T10:28:19.891Z,22.60
2022-08-17T10:31:05.284Z,22.50
2022-08-17T10:33:50.951Z,22.50
2022-08-17T10:36:23.225Z,22.40
2022-08-17T10:39:03.110Z,22.40
2022-08-17T10:41:40.459Z,22.30
2022-08-17T10:44:38.119Z,22.30
2022-08-17T10:47:09.456Z,22.20
2022-08-17T10:49:39.232Z,22.20
2022-08-17T10:52:49.279Z,22.20
2022-08-17T10:55:20.300Z,22.20
2022-08-17T10:57:51.104Z,22.40
2022-08-17T11:00:57.787Z,22.50
2022-08-17T11:03:27.560Z,22.60
2022-08-17T11:06:05.289Z,22.70
2022-08-17T11:09:07.660Z,22.80
2022-08-17T11:11:51.459Z,22.90
2022-08-17T11:14:37.190Z,23.00
2022-08-17T11:17:21.611Z,23.20
2022-08-17T11:20:29.931Z,23.20
2022-08-17T11:23:13.313Z,23.40
2022-08-17T11:25:46.842Z,23.40
2022-08-17T11:28:19.262Z,23.60
2022-08-17T11:30:51.860Z,23.70
2022-08-17T11:33:53.877Z,23.90
2022-08-17T11:36:35.396Z,24.10
2022-08-17T11:39:16.071Z,24.20
2022-08-17T11:41:50.998Z,24.30
2022-08-17T11:44:32.344Z,24.40
2022-08-17T11:47:32.903Z,24.60
2022-08-17T11:50:36.853Z,24.70
2022-08-17T11:53:04.937Z,24.80
2022-08-17T11:56:04.991Z,24.70
2022-08-17T11:58:39.908Z,24.80
2022-08-17T12:01:09.613Z,24.90
2022-08-17T12:03:55.385Z,24.80
2022-08-17T12:06:47.514Z,24.90
2022-08-17T12:09:20.725Z,25.00
2022-08-17T12:12:12.116Z,25.00
2022-08-17T12:17:51.925Z,24.90
2022-08-17T12:20:27.849Z,24.80
2022-08-17T12:23:04.411Z,24.80
2022-08-17T12:25:38.916Z,24.80
2022-08-17T12:28:20.121Z,24.80
2022-08-17T12:30:52.124Z,24.80
2022-08-17T12:33:25.042Z,24.70
2022-08-17T12:36:02.718Z,24.70
2022-08-17T12:38:34.473Z,24.60
2022-08-17T12:41:25.289Z,24.60
2022-08-17T12:44:01.504Z,24.60
2022-08-17T12:46:33.374Z,24.80
2022-08-17T12:49:26.435Z,24.90
2022-08-17T12:52:03.471Z,25.00
2022-08-17T12:54:38.609Z,25.20
2022-08-17T12:57:13.391Z,25.40
2022-08-17T12:59:45.307Z,25.70
2022-08-17T13:02:24.748Z,26.00
2022-08-17T13:04:52.807Z,26.40
2022-08-17T13:07:34.667Z,26.60
2022-08-17T13:10:03.371Z,26.80
2022-08-17T13:12:34.925Z,26.80
2022-08-17T13:15:30.070Z,26.90
2022-08-17T13:18:01.625Z,27.00
2022-08-17T13:20:29.714Z,27.00
2022-08-17T13:23:01.454Z,27.20
2022-08-17T13:25:30.813Z,27.30
2022-08-17T13:27:59.033Z,27.40
2022-08-17T13:30:31.703Z,27.50
2022-08-17T13:33:04.098Z,27.70
2022-08-17T13:35:41.336Z,27.70
2022-08-17T13:38:15.734Z,27.60
2022-08-17T13:40:50.059Z,27.50
2022-08-17T13:43:45.559Z,27.40
2022-08-17T13:46:20.292Z,27.40
2022-08-17T13:48:58.498Z,27.30
2022-08-17T13:51:29.951Z,27.20
2022-08-17T13:54:09.331Z,27.20
2022-08-17T13:56:49.967Z,27.30
2022-08-17T13:59:36.390Z,27.40
2022-08-17T14:02:19.005Z,27.30
2022-08-17T14:04:48.460Z,27.20
2022-08-17T14:07:33.715Z,27.00
2022-08-17T14:10:07.817Z,27.10
2022-08-17T14:12:36.789Z,27.20
2022-08-17T14:15:05.726Z,27.40
2022-08-17T14:17:38.444Z,27.50
2022-08-17T14:20:10.150Z,27.60
2022-08-17T14:22:40.169Z,27.80
2022-08-17T14:25:12.132Z,27.80
2022-08-17T14:27:53.036Z,27.90
2022-08-17T14:30:24.292Z,28.00
2022-08-17T14:32:53.100Z,28.10
2022-08-17T14:35:23.191Z,28.20
2022-08-17T14:37:51.857Z,28.20
2022-08-17T14:40:24.815Z,28.30
2022-08-17T14:42:55.136Z,28.30
2022-08-17T14:45:30.231Z,28.30
2022-08-17T14:48:04.014Z,28.30
2022-08-17T14:50:35.466Z,28.40
2022-08-17T14:53:05.095Z,28.40
2022-08-17T14:55:34.753Z,28.60
2022-08-17T14:58:03.942Z,28.50
2022-08-17T15:00:31.948Z,28.60
2022-08-17T15:03:01.203Z,28.60
2022-08-17T15:05:31.705Z,28.60
2022-08-17T15:08:00.838Z,28.60
2022-08-17T15:10:30.151Z,28.50
2022-08-17T15:13:00.167Z,28.40
2022-08-17T15:15:29.168Z,28.40
2022-08-17T15:17:57.841Z,28.40
2022-08-17T15:20:28.628Z,28.40
2022-08-17T15:22:58.965Z,28.40
2022-08-17T15:25:28.881Z,28.40
2022-08-17T15:27:56.916Z,28.40
2022-08-17T15:30:26.941Z,28.50
2022-08-17T15:32:57.283Z,28.50
2022-08-17T15:35:29.102Z,28.50
2022-08-17T15:38:04.939Z,28.50
2022-08-17T15:40:34.945Z,28.50
2022-08-17T15:43:06.885Z,28.40
2022-08-17T15:45:36.175Z,28.40
2022-08-17T15:48:05.099Z,28.30
2022-08-17T15:50:33.186Z,28.30
2022-08-17T15:53:03.365Z,28.20
2022-08-17T15:55:32.510Z,28.10
2022-08-17T15:58:01.000Z,28.10
2022-08-17T16:00:29.492Z,28.00
2022-08-17T16:03:37.665Z,27.90
2022-08-17T16:05:48.938Z,27.90
2022-08-17T16:08:20.886Z,27.90
2022-08-17T16:10:49.636Z,27.80
2022-08-17T16:13:18.431Z,27.80
2022-08-17T16:15:56.669Z,27.80
2022-08-17T16:18:30.985Z,27.80
2022-08-17T16:21:20.415Z,27.70
2022-08-17T16:23:49.128Z,27.70
2022-08-17T16:26:18.005Z,27.70
2022-08-17T16:28:46.391Z,27.60
2022-08-17T16:31:14.564Z,27.60
2022-08-17T16:34:15.503Z,27.60
2022-08-17T16:36:33.203Z,27.50
2022-08-17T16:39:01.433Z,27.40
2022-08-17T16:41:45.066Z,27.30
2022-08-17T16:44:15.296Z,27.30
2022-08-17T16:46:45.843Z,27.20
2022-08-17T16:49:34.462Z,27.10
2022-08-17T16:52:07.616Z,27.00
2022-08-17T16:54:37.889Z,26.90
2022-08-17T16:57:06.208Z,26.80
2022-08-17T16:59:41.018Z,26.80
2022-08-17T17:02:16.038Z,26.70
2022-08-17T17:04:51.257Z,26.60
2022-08-17T17:07:33.946Z,26.50
2022-08-17T17:10:08.326Z,26.40
2022-08-17T17:13:01.303Z,26.30
2022-08-17T17:15:33.877Z,26.20
2022-08-17T17:18:07.070Z,26.10
2022-08-17T17:20:43.723Z,26.00
2022-08-17T17:23:19.542Z,25.90
2022-08-17T17:25:56.962Z,25.80
2022-08-17T17:28:35.169Z,25.70
2022-08-17T17:31:08.474Z,25.60
2022-08-17T17:33:41.254Z,25.50
2022-08-17T17:36:23.566Z,25.40
2022-08-17T17:38:55.165Z,25.30
2022-08-17T17:41:28.929Z,25.20
2022-08-17T17:44:03.028Z,25.20
2022-08-17T17:46:37.763Z,25.10
2022-08-17T17:49:06.540Z,25.00
2022-08-17T17:52:06.860Z,25.00
2022-08-17T17:54:43.938Z,24.90
2022-08-17T17:57:21.272Z,24.80
2022-08-17T18:00:00.006Z,24.70
2022-08-17T18:02:52.605Z,24.70
2022-08-17T18:05:48.485Z,24.60
2022-08-17T18:08:35.130Z,24.50
2022-08-17T18:11:13.949Z,24.40
2022-08-17T18:13:56.340Z,24.40
2022-08-17T18:16:24.402Z,24.20
2022-08-17T18:18:53.529Z,24.20
2022-08-17T18:21:23.855Z,24.10
2022-08-17T18:23:58.573Z,24.10
2022-08-17T18:26:40.109Z,24.00
2022-08-17T18:29:37.733Z,24.00
2022-08-17T18:32:25.406Z,23.90
2022-08-17T18:34:55.642Z,23.80
2022-08-17T18:37:49.035Z,23.80
2022-08-17T18:40:32.678Z,23.70
2022-08-17T18:43:13.201Z,23.70
2022-08-17T18:45:45.814Z,23.60
2022-08-17T18:48:33.123Z,23.50
2022-08-17T18:51:06.056Z,23.50
2022-08-17T18:53:40.681Z,23.40
2022-08-17T18:56:30.533Z,23.30
2022-08-17T18:59:07.146Z,23.30
2022-08-17T19:01:53.495Z,23.30
2022-08-17T19:04:37.772Z,23.20
2022-08-17T19:07:10.183Z,23.20
2022-08-17T19:09:43.951Z,23.20
2022-08-17T19:12:27.422Z,23.20
2022-08-17T19:14:57.886Z,23.10
2022-08-17T19:17:36.083Z,23.00
2022-08-17T19:20:11.664Z,23.00
2022-08-17T19:22:52.187Z,22.90
2022-08-17T19:25:24.668Z,22.90
2022-08-17T19:28:03.108Z,22.90
2022-08-17T19:30:32.728Z,22.80
2022-08-17T19:33:02.467Z,22.80
2022-08-17T19:35:42.017Z,22.80
2022-08-17T19:38:20.262Z,22.70
2022-08-17T19:41:01.587Z,22.60
2022-08-17T19:43:51.259Z,22.60
2022-08-17T19:46:27.410Z,22.60
2022-08-17T19:49:03.369Z,22.60
2022-08-17T19:51:36.998Z,22.50
2022-08-17T19:54:14.145Z,22.50
2022-08-17T19:56:51.557Z,22.50
2022-08-17T19:59:28.861Z,22.50
2022-08-17T20:02:18.343Z,22.40
2022-08-17T20:04:50.503Z,22.40
2022-08-17T20:07:20.882Z,22.40
2022-08-17T20:09:52.815Z,22.30
2022-08-17T20:12:24.414Z,22.20
2022-08-17T20:14:57.268Z,22.30
2022-08-17T20:17:28.635Z,22.20
2022-08-17T20:20:03.056Z,22.20
2022-08-17T20:22:49.603Z,22.20
2022-08-17T20:25:30.365Z,22.20
2022-08-17T20:28:07.163Z,22.10
2022-08-17T20:30:39.695Z,22.10
2022-08-17T20:33:22.485Z,22.10
2022-08-17T20:36:12.877Z,22.10
2022-08-17T20:38:44.658Z,22.10
2022-08-17T20:41:16.492Z,22.10
2022-08-17T20:44:04.986Z,22.10
2022-08-17T20:46:57.661Z,22.00
2022-08-17T20:49:35.081Z,22.00
2022-08-17T20:52:08.626Z,22.00
2022-08-17T20:54:46.718Z,21.90
2022-08-17T20:57:47.764Z,21.90
2022-08-17T21:00:42.160Z,21.90
2022-08-17T21:03:50.556Z,21.80
2022-08-17T21:06:26.012Z,21.80
2022-08-17T21:08:58.693Z,21.70
2022-08-17T21:12:03.982Z,21.70
2022-08-17T21:15:02.430Z,21.70
2022-08-17T21:17:48.309Z,21.70
2022-08-17T21:20:32.138Z,21.70
2022-08-17T21:23:25.117Z,21.60
2022-08-17T21:26:17.365Z,21.60
2022-08-17T21:29:00.908Z,21.60
2022-08-17T21:31:35.371Z,21.60
2022-08-17T21:34:28.366Z,21.60
2022-08-17T21:36:57.699Z,21.60
2022-08-17T21:39:40.442Z,21.60
2022-08-17T21:42:09.352Z,21.60
2022-08-17T21:44:51.312Z,21.60
2022-08-17T21:47:23.802Z,21.60
2022-08-17T21:49:52.354Z,21.50
2022-08-17T21:52:22.874Z,21.50
2022-08-17T21:54:54.810Z,21.50
2022-08-17T21:57:27.411Z,21.40
2022-08-17T21:59:57.700Z,21.30
2022-08-17T22:02:29.558Z,21.30
2022-08-17T22:05:00.713Z,21.30
2022-08-17T22:07:38.721Z,21.30
2022-08-17T22:10:26.686Z,21.30
2022-08-17T22:13:03.457Z,21.40
2022-08-17T22:15:31.479Z,21.30
2022-08-17T22:18:02.078Z,21.30
2022-08-17T22:20:30.184Z,21.30
2022-08-17T22:23:29.988Z,21.30
2022-08-17T22:26:02.248Z,21.30
2022-08-17T22:28:42.974Z,21.30
2022-08-17T22:31:14.516Z,21.30
2022-08-17T22:33:46.780Z,21.30
2022-08-17T22:36:22.591Z,21.20
2022-08-17T22:38:52.081Z,21.20
2022-08-17T22:41:50.691Z,21.10
2022-08-17T22:44:25.016Z,21.00
2022-08-17T22:47:03.191Z,21.00
2022-08-17T22:49:36.797Z,20.90
2022-08-17T22:52:11.237Z,20.90
2022-08-17T22:54:56.622Z,20.80
2022-08-17T22:57:52.658Z,20.80
2022-08-17T23:00:34.288Z,20.80
2022-08-17T23:03:22.167Z,20.70
2022-08-17T23:06:05.031Z,20.60
2022-08-17T23:08:35.674Z,20.60
2022-08-17T23:11:06.301Z,20.60
2022-08-17T23:13:37.382Z,20.60
2022-08-17T23:16:05.735Z,20.50
2022-08-17T23:18:33.743Z,20.50
2022-08-17T23:21:01.883Z,20.50
2022-08-17T23:23:31.253Z,20.50
2022-08-17T23:25:59.227Z,20.40
2022-08-17T23:28:28.428Z,20.40
2022-08-17T23:30:58.219Z,20.40
2022-08-17T23:33:30.812Z,20.30
2022-08-17T23:35:59.521Z,20.30
2022-08-17T23:38:28.643Z,20.20
2022-08-17T23:40:59.865Z,20.10
2022-08-17T23:43:30.374Z,20.10
2022-08-17T23:46:00.595Z,20.00
2022-08-17T23:48:36.206Z,20.00
2022-08-17T23:51:09.078Z,20.00
2022-08-17T23:53:38.608Z,20.10
2022-08-17T23:56:10.458Z,20.10
2022-08-17T23:58:42.930Z,20.00
